createdAt,value
2023-03-05T00:02:21.514Z,63.68
2023-03-05T00:04:48.395Z,63.91
2023-03-05T00:07:14.955Z,63.83
2023-03-05T00:09:41.793Z,64.00
2023-03-05T00:12:08.678Z,64.13
2023-03-05T00:14:35.229Z,64.14
2023-03-05T00:17:01.882Z,64.12
2023-03-05T00:19:28.806Z,64.21
2023-03-05T00:21:55.605Z,64.25
2023-03-05T00:24:22.599Z,64.42
2023-03-05T00:26:49.605Z,64.30
2023-03-05T00:29:21.138Z,64.30
2023-03-05T00:31:48.660Z,64.50
2023-03-05T00:34:18.696Z,64.26
2023-03-05T00:36:48.863Z,64.14
2023-03-05T00:39:18.073Z,64.12
2023-03-05T00:41:45.354Z,63.94
2023-03-05T00:44:12.275Z,64.04
2023-03-05T00:46:39.966Z,64.16
2023-03-05T00:49:07.216Z,64.24
2023-03-05T00:51:33.861Z,64.58
2023-03-05T00:54:02.062Z,64.51
2023-03-05T00:56:29.031Z,64.48
2023-03-05T00:58:56.189Z,64.62
2023-03-05T01:01:23.422Z,64.74
2023-03-05T01:03:50.628Z,64.83
2023-03-05T01:06:17.688Z,64.82
2023-03-05T01:08:45.245Z,64.80
2023-03-05T01:11:12.236Z,65.05
2023-03-05T01:13:41.835Z,65.08
2023-03-05T01:16:08.878Z,65.23
2023-03-05T01:18:37.321Z,65.38
2023-03-05T01:21:04.184Z,65.59
2023-03-05T01:23:31.827Z,65.77
2023-03-05T01:25:58.963Z,66.04
2023-03-05T01:28:26.576Z,66.18
2023-03-05T01:30:53.497Z,66.47
2023-03-05T01:33:20.142Z,66.75
2023-03-05T01:35:48.217Z,66.85
2023-03-05T01:38:16.110Z,67.11
2023-03-05T01:40:43.261Z,67.50
2023-03-05T01:43:12.922Z,67.50
2023-03-05T01:46:18.710Z,67.71
2023-03-05T01:48:49.275Z,67.85
2023-03-05T01:51:18.684Z,67.93
2023-03-05T01:53:46.769Z,68.12
2023-03-05T01:56:15.160Z,68.41
2023-03-05T01:58:43.333Z,68.66
2023-03-05T02:01:10.297Z,68.81
2023-03-05T02:03:37.614Z,68.80
2023-03-05T02:06:04.570Z,68.90
2023-03-05T02:08:31.925Z,68.98
2023-03-05T02:10:59.814Z,69.16
2023-03-05T02:13:31.109Z,69.20
2023-03-05T02:15:59.723Z,69.12
2023-03-05T02:18:26.755Z,69.28
2023-03-05T02:20:56.483Z,69.43
2023-03-05T02:23:29.573Z,69.42
2023-03-05T02:25:56.284Z,69.35
2023-03-05T02:28:29.879Z,69.42
2023-03-05T02:30:56.962Z,69.42
2023-03-05T02:33:23.988Z,69.44
2023-03-05T02:35:51.305Z,69.49
2023-03-05T02:38:20.810Z,69.50
2023-03-05T02:40:47.661Z,69.47
2023-03-05T02:43:14.334Z,69.50
2023-03-05T02:45:41.483Z,69.47
2023-03-05T02:48:08.417Z,69.42
2023-03-05T02:50:36.216Z,69.46
2023-03-05T02:53:03.184Z,69.39
2023-03-05T02:55:29.807Z,69.30
2023-03-05T02:57:56.380Z,69.21
2023-03-05T03:00:23.709Z,69.28
2023-03-05T03:02:50.393Z,69.21
2023-03-05T03:05:17.493Z,69.25
2023-03-05T03:07:44.417Z,69.21
2023-03-05T03:10:11.472Z,69.20
2023-03-05T03:12:42.414Z,69.24
2023-03-05T03:15:11.902Z,69.07
2023-03-05T03:17:38.645Z,68.97
2023-03-05T03:20:08.247Z,68.84
2023-03-05T03:22:35.109Z,68.78
2023-03-05T03:25:04.082Z,68.60
2023-03-05T03:27:30.757Z,68.61
2023-03-05T03:30:02.175Z,68.47
2023-03-05T03:32:29.024Z,68.52
2023-03-05T03:34:58.620Z,68.53
2023-03-05T03:37:29.344Z,68.53
2023-03-05T03:39:56.193Z,68.54
2023-03-05T03:42:24.026Z,68.52
2023-03-05T03:44:51.214Z,68.38
2023-03-05T03:47:18.871Z,68.18
2023-03-05T03:49:45.558Z,68.26
2023-03-05T03:52:13.498Z,68.26
2023-03-05T03:54:40.426Z,68.19
2023-03-05T03:57:07.769Z,68.03
2023-03-05T03:59:35.091Z,68.06
2023-03-05T04:02:02.502Z,68.06
2023-03-05T04:04:38.518Z,68.04
2023-03-05T04:07:05.672Z,68.07
2023-03-05T04:09:32.258Z,68.01
2023-03-05T04:11:59.343Z,67.97
2023-03-05T04:14:26.655Z,67.88
2023-03-05T04:16:53.204Z,67.89
2023-03-05T04:19:20.372Z,67.91
2023-03-05T04:21:47.336Z,67.80
2023-03-05T04:24:14.670Z,67.89
2023-03-05T04:26:41.821Z,67.87
2023-03-05T04:29:08.876Z,68.03
2023-03-05T04:31:35.916Z,68.08
2023-03-05T04:34:02.884Z,67.88
2023-03-05T04:36:29.471Z,67.70
2023-03-05T04:38:56.378Z,67.73
2023-03-05T04:41:23.304Z,67.62
2023-03-05T04:43:49.882Z,67.68
2023-03-05T04:46:16.603Z,67.66
2023-03-05T04:48:43.482Z,67.43
2023-03-05T04:51:10.223Z,67.40
2023-03-05T04:53:36.902Z,67.36
2023-03-05T04:56:04.430Z,67.25
2023-03-05T04:58:31.074Z,67.31
2023-03-05T05:01:05.988Z,67.20
2023-03-05T05:03:33.745Z,67.12
2023-03-05T05:06:01.395Z,66.97
2023-03-05T05:08:28.829Z,66.87
2023-03-05T05:11:01.403Z,66.78
2023-03-05T05:13:28.683Z,66.79
2023-03-05T05:15:56.414Z,66.91
2023-03-05T05:18:24.049Z,66.86
2023-03-05T05:20:50.656Z,66.46
2023-03-05T05:23:18.154Z,66.38
2023-03-05T05:25:45.177Z,66.47
2023-03-05T05:28:12.384Z,66.14
2023-03-05T05:30:38.967Z,66.13
2023-03-05T05:33:05.534Z,66.46
2023-03-05T05:35:32.352Z,66.03
2023-03-05T05:37:59.133Z,65.94
2023-03-05T05:40:25.917Z,65.78
2023-03-05T05:42:53.208Z,65.88
2023-03-05T05:45:20.038Z,65.96
2023-03-05T05:47:46.847Z,66.03
2023-03-05T05:50:14.238Z,65.94
2023-03-05T05:52:40.927Z,65.90
2023-03-05T05:55:08.305Z,66.02
2023-03-05T05:57:34.934Z,65.96
2023-03-05T06:00:03.380Z,66.06
2023-03-05T06:02:39.339Z,66.17
2023-03-05T06:05:07.127Z,66.06
2023-03-05T06:07:35.450Z,66.10
2023-03-05T06:10:02.741Z,65.81
2023-03-05T06:12:29.953Z,65.92
2023-03-05T06:14:56.962Z,65.97
2023-03-05T06:17:30.306Z,66.12
2023-03-05T06:19:58.654Z,65.96
2023-03-05T06:22:25.363Z,66.00
2023-03-05T06:24:52.222Z,66.16
2023-03-05T06:27:19.145Z,66.33
2023-03-05T06:29:45.903Z,66.39
2023-03-05T06:32:12.482Z,66.29
2023-03-05T06:34:39.174Z,66.29
2023-03-05T06:37:05.832Z,66.31
2023-03-05T06:39:32.871Z,66.22
2023-03-05T06:41:59.775Z,66.38
2023-03-05T06:44:26.696Z,66.60
2023-03-05T06:46:53.412Z,66.31
2023-03-05T06:49:20.319Z,66.26
2023-03-05T06:51:47.042Z,66.36
2023-03-05T06:54:15.575Z,66.02
2023-03-05T06:56:45.147Z,66.16
2023-03-05T06:59:14.019Z,65.72
2023-03-05T07:01:41.178Z,65.44
2023-03-05T07:04:08.505Z,65.66
2023-03-05T07:06:38.013Z,65.41
2023-03-05T07:09:06.786Z,65.24
2023-03-05T07:11:34.323Z,65.00
2023-03-05T07:14:02.411Z,64.76
2023-03-05T07:16:32.177Z,64.34
2023-03-05T07:19:02.598Z,64.68
2023-03-05T07:21:31.954Z,64.65
2023-03-05T07:24:01.854Z,64.46
2023-03-05T07:26:32.935Z,64.75
2023-03-05T07:29:00.425Z,64.69
2023-03-05T07:31:30.608Z,64.58
2023-03-05T07:33:59.384Z,64.52
2023-03-05T07:36:26.332Z,64.64
2023-03-05T07:38:53.352Z,64.39
2023-03-05T07:41:29.127Z,64.69
2023-03-05T07:43:56.046Z,65.15
2023-03-05T07:46:26.508Z,65.26
2023-03-05T07:48:54.357Z,65.24
2023-03-05T07:51:22.624Z,65.39
2023-03-05T07:53:51.083Z,65.23
2023-03-05T07:56:36.272Z,65.48
2023-03-05T07:59:10.282Z,65.67
2023-03-05T08:01:37.106Z,65.65
2023-03-05T08:04:05.104Z,65.63
2023-03-05T08:06:31.965Z,65.64
2023-03-05T08:09:00.094Z,64.87
2023-03-05T08:11:28.086Z,64.79
2023-03-05T08:13:55.714Z,64.63
2023-03-05T08:16:25.403Z,64.63
2023-03-05T08:18:56.926Z,64.82
2023-03-05T08:21:29.085Z,64.50
2023-03-05T08:23:57.294Z,64.75
2023-03-05T08:26:25.670Z,64.91
2023-03-05T08:28:52.866Z,64.96
2023-03-05T08:31:22.919Z,64.99
2023-03-05T08:33:52.023Z,65.20
2023-03-05T08:36:18.957Z,64.94
2023-03-05T08:38:48.139Z,64.32
2023-03-05T08:41:16.501Z,64.56
2023-03-05T08:43:43.413Z,65.05
2023-03-05T08:46:12.878Z,64.74
2023-03-05T08:48:39.965Z,64.84
2023-03-05T08:51:13.167Z,65.04
2023-03-05T08:53:40.417Z,65.11
2023-03-05T08:56:07.610Z,65.24
2023-03-05T08:58:34.973Z,64.96
2023-03-05T09:01:02.204Z,64.61
2023-03-05T09:03:29.165Z,64.56
2023-03-05T09:06:01.511Z,64.75
2023-03-05T09:08:29.302Z,64.98
2023-03-05T09:10:56.588Z,64.76
2023-03-05T09:13:23.412Z,65.40
2023-03-05T09:16:01.708Z,65.28
2023-03-05T09:18:29.561Z,65.27
2023-03-05T09:20:56.772Z,65.37
2023-03-05T09:23:23.684Z,65.45
2023-03-05T09:25:50.655Z,65.45
2023-03-05T09:28:17.517Z,65.56
2023-03-05T09:30:44.265Z,65.67
2023-03-05T09:33:11.006Z,65.80
2023-03-05T09:35:37.765Z,65.95
2023-03-05T09:38:04.461Z,66.00
2023-03-05T09:40:55.290Z,66.04
2023-03-05T09:43:53.036Z,66.19
2023-03-05T09:46:26.342Z,66.35
2023-03-05T09:49:31.599Z,66.28
2023-03-05T09:52:25.696Z,66.37
2023-03-05T09:54:54.730Z,66.56
2023-03-05T09:57:42.038Z,66.39
2023-03-05T10:00:33.677Z,66.27
2023-03-05T10:03:06.033Z,66.37
2023-03-05T10:05:54.370Z,66.50
2023-03-05T10:08:30.917Z,66.68
2023-03-05T10:11:02.248Z,66.66
2023-03-05T10:13:40.160Z,66.70
2023-03-05T10:16:37.025Z,66.42
2023-03-05T10:19:31.942Z,66.45
2023-03-05T10:22:15.453Z,66.29
2023-03-05T10:24:57.139Z,66.61
2023-03-05T10:27:26.699Z,66.71
2023-03-05T10:30:28.822Z,66.55
2023-03-05T10:33:15.130Z,66.63
2023-03-05T10:35:51.509Z,66.96
2023-03-05T10:38:43.773Z,66.89
2023-03-05T10:41:22.868Z,67.06
2023-03-05T10:44:35.478Z,67.18
2023-03-05T10:47:10.956Z,67.36
2023-03-05T10:49:47.804Z,67.59
2023-03-05T10:52:19.645Z,67.89
2023-03-05T10:54:46.393Z,68.39
2023-03-05T10:57:25.613Z,68.49
2023-03-05T11:00:04.811Z,68.53
2023-03-05T11:02:52.019Z,68.64
2023-03-05T11:05:37.876Z,69.06
2023-03-05T11:08:36.972Z,69.71
2023-03-05T11:11:13.229Z,69.62
2023-03-05T11:13:55.516Z,69.79
2023-03-05T11:16:25.989Z,70.45
2023-03-05T11:19:20.718Z,70.56
2023-03-05T11:22:05.108Z,70.53
2023-03-05T11:24:33.300Z,71.18
2023-03-05T11:27:00.476Z,71.38
2023-03-05T11:29:32.948Z,71.68
2023-03-05T11:32:26.303Z,71.67
2023-03-05T11:34:57.444Z,71.64
2023-03-05T11:37:26.257Z,71.71
2023-03-05T11:40:22.161Z,72.01
2023-03-05T11:42:56.323Z,72.27
2023-03-05T11:45:24.611Z,73.03
2023-03-05T11:47:53.533Z,73.25
2023-03-05T11:50:20.467Z,73.59
2023-03-05T11:53:09.085Z,74.08
2023-03-05T11:55:41.134Z,74.35
2023-03-05T11:58:27.105Z,74.88
2023-03-05T12:00:54.097Z,75.72
2023-03-05T12:03:30.360Z,76.09
2023-03-05T12:06:08.728Z,76.89
2023-03-05T12:08:40.643Z,76.61
2023-03-05T12:11:17.661Z,77.27
2023-03-05T12:14:13.188Z,77.45
2023-03-05T12:16:50.060Z,77.00
2023-03-05T12:19:20.095Z,77.56
2023-03-05T12:21:50.826Z,77.75
2023-03-05T12:24:27.348Z,78.45
2023-03-05T12:27:04.361Z,78.70
2023-03-05T12:30:01.302Z,78.80
2023-03-05T12:32:28.690Z,79.19
2023-03-05T12:35:06.587Z,79.09
2023-03-05T12:37:33.651Z,79.13
2023-03-05T12:40:11.882Z,79.27
2023-03-05T12:42:38.854Z,79.47
2023-03-05T12:45:15.809Z,79.31
2023-03-05T12:47:47.701Z,79.33
2023-03-05T12:50:27.192Z,79.25
2023-03-05T12:53:03.626Z,79.19
2023-03-05T12:55:36.464Z,78.99
2023-03-05T12:58:27.240Z,78.67
2023-03-05T13:01:16.059Z,78.79
2023-03-05T13:03:55.960Z,79.13
2023-03-05T13:06:33.590Z,79.62
2023-03-05T13:09:04.183Z,79.36
2023-03-05T13:11:34.411Z,79.77
2023-03-05T13:14:02.410Z,79.72
2023-03-05T13:16:47.748Z,80.06
2023-03-05T13:19:18.393Z,80.27
2023-03-05T13:21:45.174Z,80.41
2023-03-05T13:24:19.559Z,80.47
2023-03-05T13:26:46.200Z,80.76
2023-03-05T13:29:18.724Z,80.63
2023-03-05T13:31:47.801Z,80.68
2023-03-05T13:34:22.175Z,80.73
2023-03-05T13:36:52.086Z,80.83
2023-03-05T13:39:26.729Z,81.03
2023-03-05T13:42:24.226Z,80.92
2023-03-05T13:45:20.284Z,81.21
2023-03-05T13:48:02.749Z,81.44
2023-03-05T13:50:36.546Z,81.34
2023-03-05T13:53:18.983Z,81.22
2023-03-05T13:55:47.930Z,81.23
2023-03-05T13:58:41.409Z,80.98
2023-03-05T14:01:32.264Z,80.69
2023-03-05T14:04:07.936Z,80.80
2023-03-05T14:06:41.343Z,80.78
2023-03-05T14:09:22.607Z,80.81
2023-03-05T14:12:29.687Z,81.02
2023-03-05T14:14:58.703Z,81.08
2023-03-05T14:17:29.648Z,81.10
2023-03-05T14:20:29.782Z,80.90
2023-03-05T14:23:01.076Z,80.87
2023-03-05T14:25:38.364Z,80.93
2023-03-05T14:28:27.554Z,80.51
2023-03-05T14:30:56.854Z,80.41
2023-03-05T14:33:31.606Z,80.56
2023-03-05T14:36:01.501Z,80.63
2023-03-05T14:38:31.194Z,80.77
2023-03-05T14:40:57.829Z,80.75
2023-03-05T14:43:24.734Z,80.64
2023-03-05T14:45:51.563Z,80.65
2023-03-05T14:48:18.634Z,80.52
2023-03-05T14:50:51.673Z,80.70
2023-03-05T14:53:22.292Z,80.76
2023-03-05T14:55:53.228Z,80.76
2023-03-05T14:58:22.121Z,80.49
2023-03-05T15:00:50.962Z,80.60
2023-03-05T15:03:19.657Z,80.42
2023-03-05T15:05:49.998Z,80.58
2023-03-05T15:08:20.189Z,80.69
2023-03-05T15:10:47.510Z,80.76
2023-03-05T15:13:15.251Z,80.85
2023-03-05T15:15:42.779Z,80.85
2023-03-05T15:18:14.486Z,80.80
2023-03-05T15:20:41.618Z,80.77
2023-03-05T15:23:08.702Z,80.66
2023-03-05T15:25:35.574Z,80.68
2023-03-05T15:28:02.135Z,80.69
2023-03-05T15:30:32.857Z,80.61
2023-03-05T15:33:06.800Z,80.56
2023-03-05T15:35:33.691Z,80.55
2023-03-05T15:38:00.411Z,80.71
2023-03-05T15:40:28.190Z,80.52
2023-03-05T15:42:55.989Z,80.56
2023-03-05T15:45:22.660Z,80.60
2023-03-05T15:47:51.721Z,80.71
2023-03-05T15:50:22.424Z,80.62
2023-03-05T15:52:49.951Z,80.61
2023-03-05T15:55:18.057Z,80.73
2023-03-05T15:57:47.765Z,80.74
2023-03-05T16:00:16.592Z,80.59
2023-03-05T16:02:43.555Z,80.55
2023-03-05T16:05:10.586Z,80.83
2023-03-05T16:07:41.602Z,80.96
2023-03-05T16:10:13.046Z,80.81
2023-03-05T16:12:42.384Z,80.94
2023-03-05T16:15:17.195Z,81.19
2023-03-05T16:17:46.855Z,81.27
2023-03-05T16:20:15.214Z,81.31
2023-03-05T16:22:42.885Z,81.32
2023-03-05T16:25:09.977Z,81.46
2023-03-05T16:27:37.034Z,81.51
2023-03-05T16:30:05.271Z,81.69
2023-03-05T16:32:32.535Z,81.60
2023-03-05T16:34:59.456Z,81.62
2023-03-05T16:37:26.264Z,81.74
2023-03-05T16:39:52.862Z,81.86
2023-03-05T16:42:19.673Z,81.88
2023-03-05T16:44:47.111Z,81.99
2023-03-05T16:47:13.774Z,82.11
2023-03-05T16:49:41.012Z,82.08
2023-03-05T16:52:19.724Z,82.14
2023-03-05T16:54:48.001Z,82.14
2023-03-05T16:57:15.171Z,82.17
2023-03-05T16:59:42.906Z,82.31
2023-03-05T17:02:12.436Z,82.35
2023-03-05T17:04:39.586Z,82.28
2023-03-05T17:07:07.269Z,82.27
2023-03-05T17:09:34.401Z,82.26
2023-03-05T17:12:01.187Z,82.26
2023-03-05T17:14:28.105Z,82.28
2023-03-05T17:16:55.214Z,82.48
2023-03-05T17:20:12.462Z,82.42
2023-03-05T17:22:46.576Z,82.29
2023-03-05T17:25:17.581Z,82.34
2023-03-05T17:27:47.017Z,82.34
2023-03-05T17:30:20.687Z,82.32
2023-03-05T17:32:53.333Z,82.27
2023-03-05T17:35:23.229Z,82.31
2023-03-05T17:37:54.753Z,82.37
2023-03-05T17:40:23.276Z,82.35
2023-03-05T17:42:54.914Z,82.32
2023-03-05T17:45:21.565Z,82.23
2023-03-05T17:47:48.782Z,82.17
2023-03-05T17:50:15.964Z,82.15
2023-03-05T17:52:42.885Z,82.12
2023-03-05T17:55:14.507Z,82.13
2023-03-05T17:57:42.726Z,82.20
2023-03-05T18:00:13.644Z,82.18
2023-03-05T18:02:41.180Z,82.15
2023-03-05T18:05:39.880Z,82.25
2023-03-05T18:08:56.282Z,82.29
2023-03-05T18:11:23.373Z,82.41
2023-03-05T18:13:50.378Z,82.39
2023-03-05T18:16:17.939Z,82.54
2023-03-05T18:23:00.324Z,82.76
2023-03-05T18:25:59.530Z,82.91
2023-03-05T18:28:26.624Z,83.03
2023-03-05T18:30:53.720Z,83.13
2023-03-05T18:33:23.783Z,83.19
2023-03-05T18:35:51.783Z,83.32
2023-03-05T18:38:23.733Z,83.52
2023-03-05T18:40:51.682Z,83.52
2023-03-05T18:43:20.745Z,83.57
2023-03-05T18:45:49.478Z,83.67
2023-03-05T18:48:16.605Z,83.69
2023-03-05T18:50:44.315Z,84.11
2023-03-05T18:53:12.822Z,84.31
2023-03-05T18:55:42.295Z,84.40
2023-03-05T18:58:09.901Z,84.50
2023-03-05T19:00:36.574Z,84.60
2023-03-05T19:03:05.139Z,84.62
2023-03-05T19:05:32.188Z,84.68
2023-03-05T19:07:59.098Z,84.75
2023-03-05T19:10:26.080Z,84.79
2023-03-05T19:13:07.590Z,84.89
2023-03-05T19:15:34.365Z,85.01
2023-03-05T19:18:01.137Z,84.85
2023-03-05T19:20:28.031Z,84.76
2023-03-05T19:22:55.197Z,84.75
2023-03-05T19:25:22.524Z,84.80
2023-03-05T19:27:49.559Z,84.82
2023-03-05T19:30:16.996Z,84.84
2023-03-05T19:32:46.524Z,84.85
2023-03-05T19:35:15.853Z,85.08
2023-03-05T19:37:45.293Z,85.07
2023-03-05T19:40:13.923Z,85.01
2023-03-05T19:42:40.856Z,85.06
2023-03-05T19:45:08.160Z,85.14
2023-03-05T19:47:35.415Z,85.25
2023-03-05T19:50:04.006Z,85.31
2023-03-05T19:52:30.837Z,85.26
2023-03-05T19:54:57.676Z,85.23
2023-03-05T19:57:24.689Z,85.10
2023-03-05T19:59:54.241Z,84.90
2023-03-05T20:02:21.371Z,84.91
2023-03-05T20:04:49.146Z,84.98
2023-03-05T20:07:16.246Z,85.01
2023-03-05T20:09:43.075Z,84.98
2023-03-05T20:12:10.021Z,84.97
2023-03-05T20:14:37.559Z,84.91
2023-03-05T20:17:04.492Z,84.91
2023-03-05T20:19:31.349Z,84.89
2023-03-05T20:21:58.080Z,84.83
2023-03-05T20:24:24.862Z,84.82
2023-03-05T20:26:51.787Z,84.74
2023-03-05T20:29:18.979Z,84.66
2023-03-05T20:31:47.709Z,84.63
2023-03-05T20:34:17.318Z,84.57
2023-03-05T20:36:44.027Z,84.45
2023-03-05T20:39:10.989Z,84.34
2023-03-05T20:41:39.589Z,84.25
2023-03-05T20:44:07.822Z,84.19
2023-03-05T20:46:38.817Z,84.13
2023-03-05T20:49:05.631Z,84.04
2023-03-05T20:51:35.367Z,83.93
2023-03-05T20:54:08.477Z,83.88
2023-03-05T20:56:36.133Z,83.72
2023-03-05T20:59:05.728Z,83.64
2023-03-05T21:01:34.412Z,83.58
2023-03-05T21:04:02.322Z,83.48
2023-03-05T21:06:31.084Z,83.45
2023-03-05T21:08:58.726Z,83.36
2023-03-05T21:11:26.047Z,83.24
2023-03-05T21:13:53.202Z,83.11
2023-03-05T21:16:23.316Z,83.07
2023-03-05T21:18:50.724Z,82.97
2023-03-05T21:21:19.246Z,82.84
2023-03-05T21:23:46.629Z,82.80
2023-03-05T21:26:14.451Z,82.75
2023-03-05T21:28:42.468Z,82.67
2023-03-05T21:31:14.796Z,82.58
2023-03-05T21:33:42.063Z,82.56
2023-03-05T21:36:09.736Z,82.53
2023-03-05T21:38:36.587Z,82.47
2023-03-05T21:41:04.450Z,82.42
2023-03-05T21:43:31.459Z,82.43
2023-03-05T21:46:01.000Z,82.38
2023-03-05T21:48:28.582Z,82.37
2023-03-05T21:50:56.621Z,82.37
2023-03-05T21:53:24.030Z,82.42
2023-03-05T21:56:10.090Z,82.49
2023-03-05T21:58:36.806Z,82.55
2023-03-05T22:01:04.210Z,82.59
2023-03-05T22:03:31.786Z,82.65
2023-03-05T22:05:58.788Z,82.63
2023-03-05T22:08:25.768Z,82.63
2023-03-05T22:10:52.412Z,82.67
2023-03-05T22:13:20.177Z,82.72
2023-03-05T22:15:48.936Z,82.75
2023-03-05T22:18:18.697Z,82.77
2023-03-05T22:20:45.562Z,82.69
2023-03-05T22:23:13.154Z,82.70
2023-03-05T22:25:40.073Z,82.70
2023-03-05T22:28:08.688Z,82.68
2023-03-05T22:30:36.455Z,82.67
2023-03-05T22:33:03.287Z,82.65
2023-03-05T22:35:30.183Z,82.63
2023-03-05T22:37:57.805Z,82.56
2023-03-05T22:40:24.528Z,82.49
2023-03-05T22:42:51.391Z,82.44
2023-03-05T22:45:18.753Z,82.41
2023-03-05T22:47:47.515Z,82.41
2023-03-05T22:50:15.058Z,82.47
2023-03-05T22:52:42.118Z,82.55
2023-03-05T22:55:12.047Z,82.64
2023-03-05T22:57:39.425Z,82.77
2023-03-05T23:00:10.608Z,82.95
2023-03-05T23:02:37.276Z,83.08
2023-03-05T23:05:09.455Z,83.25
2023-03-05T23:07:38.834Z,83.29
2023-03-05T23:13:04.805Z,83.56
2023-03-05T23:15:53.899Z,83.46
2023-03-05T23:18:20.902Z,83.55
2023-03-05T23:20:49.614Z,83.56
2023-03-05T23:23:17.615Z,83.51
2023-03-05T23:25:50.162Z,83.60
2023-03-05T23:28:19.058Z,83.65
2023-03-05T23:30:45.813Z,83.67
2023-03-05T23:33:18.229Z,83.67
2023-03-05T23:35:58.134Z,83.65
2023-03-05T23:38:27.512Z,83.70
2023-03-05T23:40:57.619Z,83.75
2023-03-05T23:43:26.617Z,83.90
2023-03-05T23:45:59.129Z,83.96
2023-03-05T23:48:28.186Z,84.04
2023-03-05T23:50:55.426Z,84.05
2023-03-05T23:53:28.843Z,84.03
2023-03-05T23:55:56.347Z,84.03
2023-03-05T23:58:23.518Z,84.03
